Notice: Undefined index: language in /var/www/vam/vam/index.php on line 25

 Air Côte d'Ivoire Virtuel



 METAR AND TAF INFORMATION
METAR FOR GMAD
ADDS - METARS form results

(2148 UTC 25 May 2019)
Data provider http://aviationweather.gov/metar/data/
 
METAR text: GMAD 252130Z 18007KT 7000 OVC016 18/15 Q1012 NOSIG
Conditions at: GMAD (AL MASSIRA MC , MA) observed 2130 UTC 25 May 2019
Temperature: 18.0°C (64°F)
Dewpoint: 15.0°C (59°F) [RH = 83%]
Pressure (altimeter): 29.88 inches Hg (1012.0 mb)
Winds: from the S (180 degrees) at 8 MPH (7 knots; 3.6 m/s)
Visibility: 4 miles ( 7 km)
Ceiling: 1600 feet AGL
Clouds: overcast cloud deck at 1600 feet AGL
Weather: no significant weather observed at this time

METAR text: GMAD 252100Z 19008KT 7000 OVC016 18/15 Q1012 NOSIG
Conditions at: GMAD (AL MASSIRA MC , MA) observed 2100 UTC 25 May 2019
Temperature: 18.0°C (64°F)
Dewpoint: 15.0°C (59°F) [RH = 83%]
Pressure (altimeter): 29.88 inches Hg (1012.0 mb)
Winds: from the S (190 degrees) at 9 MPH (8 knots; 4.1 m/s)
Visibility: 4 miles ( 7 km)
Ceiling: 1600 feet AGL
Clouds: overcast cloud deck at 1600 feet AGL
Weather: no significant weather observed at this time

Forecast for: GMAD (AL MASSIRA MC , MA)
Text: TAF GMAD 251700Z 2518/2624 20010KT 9999 BKN016
Forecast period: 1800 UTC 25 May 2019 to 1000 UTC 26 May 2019
Forecast type: FROM: standard forecast or significant change
Winds: from the SSW (200 degrees) at 12 MPH (10 knots; 5.1 m/s)
Visibility: 6 or more miles 10+ km)
Ceiling: 1600 feet AGL
Clouds: broken clouds at 1600 feet AGL
Weather: no significant weather forecast for this period
Text: TEMPO 2600/2608 BKN013
Forecast period: 0000 to 0800 UTC 26 May 2019
Forecast type: TEMPORARY: The following changes expected for less than half the time period
Visibility: missing
Ceiling: 1300 feet AGL
Clouds: broken clouds at 1300 feet AGL
Weather: no significant weather forecast for this period
Text: BECMG 2610/2612 26012KT CAVOK
Forecast period: 1000 UTC 26 May 2019 to 0000 UTC 27 May 2019
Forecast type: BECOMING: Conditions expected to become as follows by 1200 UTC 26 May 2019
Winds: from the W (260 degrees) at 14 MPH (12 knots; 6.2 m/s)
Visibility: 6 or more miles 10+ km)
Ceiling: unknown
Clouds: missing
Weather: NSW  (no significant weather)

 AIRPORT MAP

 RUNWAY INFORMATION
Runway 10 Runway length 10499 ft Runway width 148 ft
Runway elevation 198 ft Runway displaced threshold 0 ft Runway heading 92
Runway 28 Runway length 10499 ft Runway width 148 ft
Runway elevation 254 ft Runway displaced threshold 0 ft Runway heading 272

 AIRPORT FREQUENCIES
Type APP Name AGADIR APP Frequency 120.9 MHZ
Type TWR Name AGADIR TWR Frequency 119.5 MHZ

 AIRPORT NEAR NAVIGATION AIDS
Type VOR-DME Name Agadir Frequency 117200 KHZ
Type NDB Name Agadir Frequency 396 KHZ
Type NDB Name Agadir Frequency 402 KHZ